Time;durP1;ratioP1;P1;durP2;ratioP2;P2;SDS_P1;SDS_P2;PMS_P1;PMS_P2;Temp;Humidity;BMP_temperature;BMP_pressure;BME280_temperature;BME280_humidity;BME280_pressure;Samples;Min_cycle;Max_cycle;Signal;HPM_P1;HPM_P2
2022/01/06 00:02:17;;;;;;;4.78;1.15;;;0.60;91.50;;;;;;4931699;29;20476;-89
2022/01/06 00:04:48;;;;;;;2.90;1.05;;;0.50;91.60;;;;;;4938852;29;20087;-89
2022/01/06 00:07:13;;;;;;;3.03;0.95;;;0.60;91.70;;;;;;4944859;28;20030;-89
2022/01/06 00:09:41;;;;;;;2.78;1.00;;;0.50;91.60;;;;;;4931157;29;20031;-89
2022/01/06 00:12:10;;;;;;;4.85;1.15;;;0.60;91.10;;;;;;4937160;28;20092;-89
2022/01/06 00:17:59;;;;;;;3.22;1.20;;;0.60;91.10;;;;;;4899890;29;20059;-89
2022/01/06 00:25:37;;;;;;;3.63;0.93;;;0.60;91.00;;;;;;4925622;29;20380;-89
2022/01/06 00:28:05;;;;;;;5.95;1.25;;;0.60;91.00;;;;;;4925325;29;20032;-89
2022/01/06 00:30:30;;;;;;;7.85;1.20;;;0.40;90.80;;;;;;4924878;29;20376;-88
2022/01/06 00:33:05;;;;;;;6.25;1.13;;;0.50;91.10;;;;;;4925484;29;20042;-89
2022/01/06 00:35:39;;;;;;;7.28;1.50;;;0.40;90.70;;;;;;4925669;29;20174;-89
2022/01/06 00:38:11;;;;;;;6.32;1.30;;;0.40;91.10;;;;;;4943553;28;20527;-88
2022/01/06 00:40:48;;;;;;;4.38;1.20;;;0.40;91.10;;;;;;4945794;28;20032;-88
2022/01/06 00:43:16;;;;;;;9.32;1.73;;;0.40;91.40;;;;;;4939253;28;20028;-88
2022/01/06 00:45:41;;;;;;;5.72;1.73;;;0.30;91.40;;;;;;4942833;28;20043;-89
2022/01/06 00:48:12;;;;;;;6.10;1.63;;;0.30;91.50;;;;;;4938793;28;20027;-89
2022/01/06 00:50:42;;;;;;;7.13;1.70;;;0.30;91.30;;;;;;4925691;29;21455;-88
2022/01/06 00:53:08;;;;;;;8.70;2.17;;;0.30;91.40;;;;;;4925301;29;20491;-88
2022/01/06 00:55:35;;;;;;;8.70;1.98;;;0.20;91.50;;;;;;4939727;29;20032;-88
2022/01/06 00:58:04;;;;;;;8.55;1.67;;;0.20;91.60;;;;;;4936491;28;20036;-88
2022/01/06 01:00:38;;;;;;;8.70;1.58;;;0.20;91.50;;;;;;4929507;29;20028;-88
2022/01/06 01:03:24;;;;;;;5.10;1.33;;;0.10;91.70;;;;;;4927478;29;20047;-88
2022/01/06 01:05:53;;;;;;;5.50;1.27;;;0.10;92.00;;;;;;4932631;29;20041;-89
2022/01/06 01:08:18;;;;;;;5.30;1.02;;;0.00;92.00;;;;;;4922309;29;20514;-88
2022/01/06 01:10:48;;;;;;;5.03;1.45;;;0.00;92.20;;;;;;4940056;28;20024;-88
2022/01/06 01:13:16;;;;;;;9.00;1.30;;;0.00;92.30;;;;;;4920328;29;20039;-88
2022/01/06 01:15:51;;;;;;;16.42;1.50;;;0.00;92.30;;;;;;4924003;29;20059;-88
2022/01/06 01:18:19;;;;;;;11.68;3.42;;;0.00;92.20;;;;;;4939179;28;20051;-88
2022/01/06 01:20:48;;;;;;;7.13;2.83;;;0.00;91.80;;;;;;4936772;28;20040;-88
2022/01/06 01:23:15;;;;;;;7.72;3.50;;;0.10;91.70;;;;;;4936098;28;20046;-88
2022/01/06 01:25:44;;;;;;;13.52;4.30;;;0.20;90.90;;;;;;4929783;29;20106;-88
2022/01/06 01:28:11;;;;;;;5.80;1.95;;;0.10;91.20;;;;;;4944725;28;20488;-88
2022/01/06 01:30:53;;;;;;;12.57;3.30;;;0.10;91.70;;;;;;4929796;29;20030;-88
2022/01/06 01:33:19;;;;;;;12.95;4.07;;;0.00;92.10;;;;;;4939154;28;20059;-88
2022/01/06 01:35:45;;;;;;;20.75;6.18;;;0.00;92.10;;;;;;4925675;29;20028;-88
2022/01/06 01:38:10;;;;;;;18.90;6.20;;;-3276.70;92.40;;;;;;4939058;28;20412;-88
2022/01/06 01:40:36;;;;;;;10.65;2.88;;;-3276.60;92.40;;;;;;4923865;29;20078;-89
2022/01/06 01:43:03;;;;;;;8.30;2.70;;;-3276.60;92.70;;;;;;4947261;28;20059;-88
2022/01/06 01:45:31;;;;;;;7.68;1.95;;;-3276.70;92.90;;;;;;4929180;29;20028;-88
2022/01/06 01:47:59;;;;;;;6.15;1.55;;;0.00;92.40;;;;;;4941422;28;20023;-88
2022/01/06 01:50:25;;;;;;;8.90;1.73;;;-3276.70;92.50;;;;;;4928129;29;20028;-88
2022/01/06 01:52:56;;;;;;;5.88;1.98;;;-3276.60;92.70;;;;;;4921123;29;20409;-89
2022/01/06 01:55:24;;;;;;;8.35;1.90;;;-3276.70;92.60;;;;;;4928821;29;20035;-89
2022/01/06 01:57:51;;;;;;;5.45;2.03;;;-3276.70;92.60;;;;;;4945508;28;20035;-89
2022/01/06 02:00:32;;;;;;;7.65;1.52;;;-3276.70;92.50;;;;;;4926032;29;20090;-89
2022/01/06 02:03:00;;;;;;;13.57;1.75;;;-3276.70;92.60;;;;;;4935362;29;20042;-89
2022/01/06 02:05:28;;;;;;;12.93;1.75;;;-3276.70;92.60;;;;;;4934771;29;20059;-89
2022/01/06 02:07:58;;;;;;;8.02;1.77;;;-3276.60;92.80;;;;;;4930721;29;20047;-89
2022/01/06 02:10:25;;;;;;;9.70;1.98;;;-3276.50;92.90;;;;;;4929441;29;20024;-89
2022/01/06 02:12:54;;;;;;;6.72;1.67;;;-3276.50;93.00;;;;;;4933104;29;20040;-89
2022/01/06 02:15:22;;;;;;;8.88;1.08;;;-3276.50;92.90;;;;;;4944807;29;20083;-89
2022/01/06 02:17:51;;;;;;;5.40;1.23;;;-3276.40;92.90;;;;;;4938464;29;20032;-89
2022/01/06 02:20:26;;;;;;;6.50;1.40;;;-3276.40;93.10;;;;;;4921078;29;20118;-89
2022/01/06 02:22:52;;;;;;;5.60;1.20;;;-3276.30;93.30;;;;;;4926238;29;20043;-89
2022/01/06 02:25:31;;;;;;;5.57;1.23;;;-3276.30;93.50;;;;;;4934036;29;20059;-89
2022/01/06 02:27:57;;;;;;;4.75;1.35;;;-3276.10;93.70;;;;;;4927322;29;20028;-89
2022/01/06 02:30:25;;;;;;;6.65;1.17;;;-3276.00;93.80;;;;;;4933206;29;20060;-89
2022/01/06 02:32:51;;;;;;;5.10;0.80;;;-3275.90;94.10;;;;;;4945340;29;20377;-89
2022/01/06 02:35:19;;;;;;;3.78;1.00;;;-3275.80;94.30;;;;;;4941726;29;20027;-89
2022/01/06 02:37:46;;;;;;;3.00;1.05;;;-3275.70;94.50;;;;;;4942600;28;20385;-89
2022/01/06 02:40:18;;;;;;;4.75;1.13;;;-3275.60;94.70;;;;;;4933152;29;20059;-89
2022/01/06 02:42:47;;;;;;;8.55;1.30;;;-3275.50;94.90;;;;;;4928473;29;20369;-89
2022/01/06 02:45:14;;;;;;;9.83;1.10;;;-3275.40;95.10;;;;;;4935435;29;20027;-88
2022/01/06 02:47:40;;;;;;;7.03;1.45;;;-3275.40;95.40;;;;;;4942783;28;20031;-89
2022/01/06 02:50:07;;;;;;;6.40;0.95;;;-3275.40;95.60;;;;;;4943325;28;20028;-89
2022/01/06 02:52:33;;;;;;;6.47;0.98;;;-3275.40;95.80;;;;;;4931466;29;20059;-89
2022/01/06 02:54:59;;;;;;;7.05;1.40;;;-3275.30;95.80;;;;;;4934282;29;20067;-88
2022/01/06 02:57:24;;;;;;;5.93;1.15;;;-3275.30;95.90;;;;;;4939515;29;20116;-89
2022/01/06 02:59:50;;;;;;;3.55;1.13;;;-3275.30;96.00;;;;;;4921105;29;20476;-89
2022/01/06 03:02:18;;;;;;;6.63;1.23;;;-3275.30;96.10;;;;;;4940665;29;20408;-89
2022/01/06 03:04:43;;;;;;;8.40;1.40;;;-3275.30;96.10;;;;;;4947837;28;20219;-89
2022/01/06 03:07:09;;;;;;;7.22;1.70;;;-3275.30;96.10;;;;;;4927186;29;20458;-89
2022/01/06 03:09:38;;;;;;;5.25;1.33;;;-3275.40;96.20;;;;;;4930760;29;20032;-89
2022/01/06 03:12:17;;;;;;;5.55;1.40;;;-3275.40;96.20;;;;;;4948596;28;20036;-89
2022/01/06 03:14:43;;;;;;;5.75;1.48;;;-3275.30;96.30;;;;;;4926327;29;20027;-89
2022/01/06 03:17:08;;;;;;;5.43;1.40;;;-3275.40;96.30;;;;;;4931574;29;20030;-89
2022/01/06 03:19:36;;;;;;;11.80;1.77;;;-3275.40;96.30;;;;;;4933563;29;20067;-89
2022/01/06 03:22:02;;;;;;;7.45;1.30;;;-3275.40;96.30;;;;;;4925357;29;20028;-89
2022/01/06 03:24:31;;;;;;;11.20;1.70;;;-3275.30;96.30;;;;;;4944190;29;20028;-89
2022/01/06 03:26:56;;;;;;;2.90;1.10;;;-3275.30;96.40;;;;;;4937856;28;20024;-89
2022/01/06 03:29:22;;;;;;;15.27;1.70;;;-3275.30;96.40;;;;;;4935083;29;20034;-89
2022/01/06 03:31:49;;;;;;;7.72;1.33;;;-3275.40;96.40;;;;;;4931724;29;20031;-89
2022/01/06 03:34:15;;;;;;;4.68;1.10;;;-3275.30;96.40;;;;;;4936957;29;20400;-89
2022/01/06 03:36:41;;;;;;;11.32;1.90;;;-3275.30;96.50;;;;;;4932737;29;20090;-89
2022/01/06 03:39:09;;;;;;;12.50;1.80;;;-3275.40;96.60;;;;;;4933186;29;20172;-89
2022/01/06 03:41:34;;;;;;;6.63;1.52;;;-3275.50;96.60;;;;;;4922094;29;20032;-89
2022/01/06 03:44:00;;;;;;;9.15;1.58;;;-3275.50;96.60;;;;;;4945244;28;20099;-89
2022/01/06 03:46:26;;;;;;;5.75;1.55;;;-3275.60;96.60;;;;;;4932256;29;20060;-89
2022/01/06 03:48:52;;;;;;;7.85;2.03;;;-3275.60;96.60;;;;;;4938955;29;20025;-89
2022/01/06 03:51:20;;;;;;;6.82;1.90;;;-3275.70;96.50;;;;;;4932010;29;20047;-89
2022/01/06 03:53:47;;;;;;;11.80;1.70;;;-3275.70;96.50;;;;;;4924670;29;20071;-89
2022/01/06 03:56:13;;;;;;;9.05;1.48;;;-3275.70;96.50;;;;;;4933158;29;20071;-89
2022/01/06 03:58:59;;;;;;;10.80;2.22;;;-3275.70;96.50;;;;;;4926675;29;20195;-89
2022/01/06 04:01:24;;;;;;;6.30;1.55;;;-3275.60;96.50;;;;;;4928082;29;20507;-89
2022/01/06 04:03:52;;;;;;;8.02;1.75;;;-3275.60;96.50;;;;;;4948417;28;20031;-89
2022/01/06 04:06:18;;;;;;;8.23;1.50;;;-3275.60;96.40;;;;;;4942876;28;20023;-89
2022/01/06 04:08:44;;;;;;;7.70;1.30;;;-3275.60;96.50;;;;;;4931860;29;20121;-89
2022/01/06 04:11:10;;;;;;;10.40;1.70;;;-3275.70;96.60;;;;;;4945463;28;20020;-89
2022/01/06 04:13:36;;;;;;;11.63;2.05;;;-3275.80;96.60;;;;;;4941375;29;20052;-89
2022/01/06 04:16:05;;;;;;;11.82;2.00;;;-3275.80;96.60;;;;;;4943021;28;20042;-89
2022/01/06 04:18:31;;;;;;;7.35;1.77;;;-3275.90;96.50;;;;;;4933377;29;20028;-89
2022/01/06 04:20:57;;;;;;;14.05;2.25;;;-3275.90;96.50;;;;;;4939850;28;20033;-88
2022/01/06 04:23:22;;;;;;;7.07;2.38;;;-3275.90;96.50;;;;;;4930173;29;20051;-89
2022/01/06 04:25:48;;;;;;;7.55;2.25;;;-3275.80;96.40;;;;;;4940421;28;20032;-89
2022/01/06 04:28:15;;;;;;;10.65;2.70;;;-3275.80;96.40;;;;;;4943229;28;20411;-89
2022/01/06 04:30:43;;;;;;;14.23;2.97;;;-3275.80;96.40;;;;;;4931739;29;20027;-89
2022/01/06 04:33:09;;;;;;;15.93;3.15;;;-3275.80;96.40;;;;;;4932857;29;20043;-89
2022/01/06 04:35:34;;;;;;;8.90;2.28;;;-3275.80;96.50;;;;;;4931558;29;20039;-89
2022/01/06 04:38:00;;;;;;;7.28;2.33;;;-3275.80;96.50;;;;;;4947313;29;20042;-89
2022/01/06 04:40:26;;;;;;;7.28;3.00;;;-3275.80;96.50;;;;;;4932000;29;20082;-89
2022/01/06 04:42:51;;;;;;;10.52;2.55;;;-3275.90;96.50;;;;;;4943078;29;20305;-89
2022/01/06 04:45:17;;;;;;;13.63;2.45;;;-3275.90;96.50;;;;;;4941715;28;20027;-90
2022/01/06 04:47:43;;;;;;;13.02;2.10;;;-3276.00;96.50;;;;;;4941960;29;20032;-90
2022/01/06 04:50:09;;;;;;;7.57;1.73;;;-3275.90;96.40;;;;;;4930798;29;20028;-89
2022/01/06 04:52:35;;;;;;;7.00;1.80;;;-3276.00;96.40;;;;;;4937004;29;20027;-90
2022/01/06 04:55:00;;;;;;;19.05;1.90;;;-3276.00;96.50;;;;;;4931960;29;20090;-89
2022/01/06 04:57:26;;;;;;;12.35;1.77;;;-3276.00;96.40;;;;;;4930718;29;20042;-90
2022/01/06 04:59:54;;;;;;;6.30;1.85;;;-3276.10;96.30;;;;;;4945390;28;20032;-89
2022/01/06 05:02:19;;;;;;;7.95;1.50;;;-3276.10;96.30;;;;;;4933115;29;20051;-90
2022/01/06 05:04:45;;;;;;;6.70;1.63;;;-3276.10;96.20;;;;;;4927546;29;20032;-90
2022/01/06 05:07:10;;;;;;;9.50;2.17;;;-3276.10;96.20;;;;;;4941050;28;20036;-90
2022/01/06 05:09:36;;;;;;;10.98;1.88;;;-3276.10;96.20;;;;;;4929006;29;20107;-90
2022/01/06 05:12:02;;;;;;;10.23;1.63;;;-3276.20;96.20;;;;;;4944948;28;20027;-90
2022/01/06 05:14:30;;;;;;;10.18;1.70;;;-3276.20;96.20;;;;;;4927393;29;20484;-90
2022/01/06 05:16:56;;;;;;;11.95;1.73;;;-3276.20;96.00;;;;;;4938201;28;20027;-90
2022/01/06 05:19:25;;;;;;;6.88;1.70;;;-3276.30;96.00;;;;;;4937100;29;20444;-90
2022/01/06 05:21:51;;;;;;;11.77;1.77;;;-3276.30;95.90;;;;;;4943744;28;20509;-90
2022/01/06 05:24:27;;;;;;;13.80;1.98;;;-3276.40;95.90;;;;;;4922055;29;20024;-90
2022/01/06 05:27:10;;;;;;;6.80;1.17;;;-3276.50;95.90;;;;;;4919696;29;20038;-90
2022/01/06 05:29:39;;;;;;;3.95;1.35;;;-3276.50;95.80;;;;;;4926248;29;20024;-88
2022/01/06 05:32:25;;;;;;;11.65;1.63;;;-3276.50;95.70;;;;;;4932530;29;20031;-90
2022/01/06 05:35:23;;;;;;;10.13;1.58;;;-3276.60;95.60;;;;;;4930634;29;20036;-89
2022/01/06 05:37:52;;;;;;;7.03;1.42;;;-3276.50;95.40;;;;;;4944329;28;20043;-89
2022/01/06 05:40:17;;;;;;;7.90;1.30;;;-3276.60;95.30;;;;;;4938020;29;20398;-89
2022/01/06 05:42:50;;;;;;;5.70;1.35;;;-3276.60;95.20;;;;;;4949057;29;20038;-89
2022/01/06 05:45:26;;;;;;;;;;;;;;;;;;;;;
2022/01/06 05:48:13;;;;;;;7.47;1.35;;;-3276.50;95.10;;;;;;4936669;29;20405;-89
2022/01/06 05:50:42;;;;;;;3.35;0.90;;;-3276.50;95.20;;;;;;4928633;29;20054;-89
2022/01/06 05:53:15;;;;;;;12.07;1.55;;;-3276.50;95.10;;;;;;4940738;28;20031;-89
2022/01/06 05:55:43;;;;;;;9.32;2.00;;;-3276.40;95.10;;;;;;4921443;29;20042;-89
2022/01/06 05:58:11;;;;;;;9.90;1.60;;;-3276.40;95.10;;;;;;4937442;29;20075;-89
2022/01/06 06:00:40;;;;;;;9.25;1.50;;;-3276.40;95.30;;;;;;4946455;28;20032;-89
2022/01/06 06:03:05;;;;;;;4.68;1.40;;;-3276.40;95.20;;;;;;4918282;29;20047;-89
2022/01/06 06:05:34;;;;;;;4.90;1.73;;;-3276.40;95.30;;;;;;4939571;28;20028;-89
2022/01/06 06:07:59;;;;;;;12.13;1.67;;;-3276.40;95.20;;;;;;4937901;28;20110;-89
2022/01/06 06:10:27;;;;;;;3.92;1.30;;;-3276.50;95.30;;;;;;4919835;29;20115;-89
2022/01/06 06:12:55;;;;;;;9.07;1.70;;;-3276.50;95.30;;;;;;4941761;29;20047;-89
2022/01/06 06:15:21;;;;;;;10.90;1.80;;;-3276.50;95.30;;;;;;4932350;29;20452;-88
2022/01/06 06:17:49;;;;;;;4.65;1.20;;;-3276.50;95.30;;;;;;4931865;29;20027;-89
2022/01/06 06:20:16;;;;;;;7.32;1.80;;;-3276.40;95.30;;;;;;4935528;29;20035;-88
2022/01/06 06:22:43;;;;;;;6.75;1.38;;;-3276.40;95.40;;;;;;4933149;29;20124;-89
2022/01/06 06:25:17;;;;;;;4.78;1.75;;;-3276.40;95.40;;;;;;4928020;29;20115;-89
2022/01/06 06:27:45;;;;;;;7.57;1.63;;;-3276.40;95.40;;;;;;4946021;28;20092;-89
2022/01/06 06:30:11;;;;;;;9.82;2.05;;;-3276.40;95.40;;;;;;4932673;29;20028;-88
2022/01/06 06:32:36;;;;;;;7.68;1.55;;;-3276.30;95.60;;;;;;4948403;29;20380;-88
2022/01/06 06:35:04;;;;;;;3.10;1.50;;;-3276.30;95.60;;;;;;4934231;29;20040;-88
2022/01/06 06:37:31;;;;;;;9.50;1.70;;;-3276.20;95.50;;;;;;4924095;29;20117;-90
2022/01/06 06:39:57;;;;;;;7.20;2.00;;;-3276.20;95.70;;;;;;4934388;29;20028;-88
2022/01/06 06:42:24;;;;;;;16.83;2.30;;;-3276.20;95.80;;;;;;4888949;28;20075;-89
2022/01/06 06:44:49;;;;;;;8.50;1.50;;;-3276.20;95.90;;;;;;4881360;28;20043;-89
2022/01/06 06:47:15;;;;;;;8.05;1.58;;;-3276.30;95.80;;;;;;4954674;28;20031;-89
2022/01/06 06:49:45;;;;;;;7.32;1.80;;;-3276.40;95.80;;;;;;4943913;28;20039;-89
2022/01/06 06:52:14;;;;;;;7.43;1.80;;;-3276.50;95.70;;;;;;4950506;29;20032;-88
2022/01/06 06:54:40;;;;;;;7.20;1.90;;;-3276.60;95.30;;;;;;4951099;29;20039;-88
2022/01/06 06:57:05;;;;;;;4.22;1.52;;;-3276.60;95.20;;;;;;4944380;28;20032;-88
2022/01/06 06:59:31;;;;;;;4.43;1.75;;;-3276.60;95.10;;;;;;4949972;29;20159;-88
2022/01/06 07:01:56;;;;;;;6.82;2.20;;;-3276.40;95.10;;;;;;4955609;29;20055;-89
2022/01/06 07:04:25;;;;;;;10.77;1.95;;;-3276.40;95.10;;;;;;4950606;28;20047;-89
2022/01/06 07:06:53;;;;;;;7.88;1.85;;;-3276.30;95.20;;;;;;4953898;28;20087;-88
2022/01/06 07:09:56;;;;;;;6.50;1.40;;;-3276.20;95.40;;;;;;4946469;29;20019;-89
2022/01/06 07:12:25;;;;;;;7.97;1.58;;;-3276.20;95.40;;;;;;4942616;29;20495;-88
2022/01/06 07:14:53;;;;;;;9.57;1.95;;;-3276.10;95.50;;;;;;4943541;29;20063;-88
2022/01/06 07:17:21;;;;;;;6.22;1.75;;;-3276.00;95.60;;;;;;4948311;28;20034;-89
2022/01/06 07:19:47;;;;;;;4.32;1.50;;;-3276.10;95.70;;;;;;4965565;28;20079;-88
2022/01/06 07:22:12;;;;;;;4.63;1.67;;;-3276.10;95.70;;;;;;4952181;29;20055;-88
2022/01/06 07:24:39;;;;;;;6.65;1.80;;;-3276.10;95.70;;;;;;4948917;29;20050;-88
2022/01/06 07:27:04;;;;;;;10.05;1.98;;;-3276.00;95.70;;;;;;4951784;29;20034;-88
2022/01/06 07:29:32;;;;;;;5.55;1.63;;;-3276.00;95.80;;;;;;4951014;28;20130;-88
2022/01/06 07:31:58;;;;;;;10.43;1.60;;;-3276.00;95.80;;;;;;4953152;29;20027;-88
2022/01/06 07:34:24;;;;;;;8.55;1.73;;;-3276.00;95.80;;;;;;4954744;29;20442;-88
2022/01/06 07:36:49;;;;;;;14.70;2.28;;;-3276.00;95.90;;;;;;4954349;29;20400;-88
2022/01/06 07:39:15;;;;;;;7.10;1.70;;;-3276.00;95.70;;;;;;4954729;29;20480;-88
2022/01/06 07:41:40;;;;;;;9.77;1.83;;;-3276.00;95.70;;;;;;4952470;29;20031;-88
2022/01/06 07:44:07;;;;;;;5.88;1.63;;;-3275.80;95.50;;;;;;4943927;29;20023;-88
2022/01/06 07:46:37;;;;;;;10.95;1.98;;;-3275.70;95.50;;;;;;4952958;28;20059;-88
2022/01/06 07:49:04;;;;;;;9.57;1.55;;;-3275.70;95.60;;;;;;4959433;28;20070;-87
2022/01/06 07:51:31;;;;;;;8.07;2.00;;;-3275.70;95.70;;;;;;4953658;29;20148;-87
2022/01/06 07:53:59;;;;;;;10.10;1.85;;;-3275.80;95.90;;;;;;4950803;29;20784;-88
2022/01/06 07:56:25;;;;;;;9.98;1.90;;;-3275.80;95.90;;;;;;4964352;28;20035;-88
2022/01/06 07:58:53;;;;;;;2.50;1.50;;;-3275.90;96.00;;;;;;4951264;28;20081;-88
2022/01/06 08:01:19;;;;;;;14.27;2.30;;;-3275.90;95.90;;;;;;4943382;28;20369;-88
2022/01/06 08:03:45;;;;;;;7.95;2.45;;;-3276.00;95.90;;;;;;4942506;29;20038;-88
2022/01/06 08:06:14;;;;;;;9.38;1.63;;;-3276.10;96.00;;;;;;4952170;29;20035;-88
2022/01/06 08:08:44;;;;;;;9.23;2.22;;;-3276.30;95.90;;;;;;4948029;29;20028;-88
2022/01/06 08:11:10;;;;;;;8.07;2.17;;;-3276.30;95.70;;;;;;4950487;28;20801;-88
2022/01/06 08:13:35;;;;;;;9.13;2.22;;;-3276.30;95.70;;;;;;4953426;29;20519;-88
2022/01/06 08:16:04;;;;;;;5.75;2.08;;;-3276.30;95.60;;;;;;4952910;28;20031;-88
2022/01/06 08:18:30;;;;;;;6.47;2.42;;;-3276.30;95.60;;;;;;4950698;29;20035;-88
2022/01/06 08:20:55;;;;;;;8.30;2.28;;;-3276.20;95.60;;;;;;4950449;28;20038;-88
2022/01/06 08:23:23;;;;;;;11.57;2.38;;;-3276.20;95.60;;;;;;4953004;28;20038;-88
2022/01/06 08:25:49;;;;;;;18.20;2.83;;;-3276.20;95.60;;;;;;4951866;29;20074;-87
2022/01/06 08:28:15;;;;;;;9.38;2.58;;;-3276.20;95.60;;;;;;4948163;28;20024;-88
2022/01/06 08:30:40;;;;;;;7.43;2.83;;;-3276.10;95.60;;;;;;4949526;29;20077;-88
2022/01/06 08:33:06;;;;;;;12.35;2.90;;;-3276.20;95.70;;;;;;4949873;29;20472;-88
2022/01/06 08:35:31;;;;;;;10.85;2.90;;;-3276.20;95.80;;;;;;4947187;29;20035;-88
2022/01/06 08:37:57;;;;;;;6.32;3.00;;;-3276.30;95.80;;;;;;4945761;28;20031;-88
2022/01/06 08:40:23;;;;;;;12.68;3.20;;;-3276.20;95.70;;;;;;4945423;29;20106;-88
2022/01/06 08:42:48;;;;;;;9.75;2.75;;;-3276.30;95.80;;;;;;4945047;29;20492;-87
2022/01/06 08:45:16;;;;;;;11.55;3.17;;;-3276.40;95.80;;;;;;4945790;28;20019;-88
2022/01/06 08:47:42;;;;;;;9.85;3.30;;;-3276.50;95.80;;;;;;4944345;29;20027;-88
2022/01/06 08:50:09;;;;;;;7.03;3.10;;;-3276.60;95.80;;;;;;4947206;29;20031;-88
2022/01/06 08:52:36;;;;;;;6.32;2.40;;;-3276.60;95.70;;;;;;4935065;29;20114;-88
2022/01/06 08:55:04;;;;;;;9.52;3.08;;;-3276.60;95.80;;;;;;4946041;28;20153;-88
2022/01/06 08:57:29;;;;;;;6.40;2.88;;;-3276.70;95.70;;;;;;4938876;28;20035;-88
2022/01/06 08:59:55;;;;;;;9.98;2.75;;;-3276.70;95.70;;;;;;4944004;28;20523;-88
2022/01/06 09:02:21;;;;;;;12.02;2.83;;;0.00;95.70;;;;;;4950546;28;20453;-88
2022/01/06 09:04:49;;;;;;;16.13;2.85;;;0.00;95.60;;;;;;4941232;29;20110;-88
2022/01/06 09:07:15;;;;;;;11.80;2.60;;;0.00;95.60;;;;;;4946953;28;20506;-88
2022/01/06 09:09:40;;;;;;;8.98;2.58;;;0.00;95.60;;;;;;4946745;28;20031;-88
2022/01/06 09:12:07;;;;;;;13.55;3.05;;;0.00;95.50;;;;;;4944838;28;20058;-88
2022/01/06 09:14:33;;;;;;;12.77;3.30;;;0.00;95.50;;;;;;4940355;28;20035;-88
2022/01/06 09:16:58;;;;;;;6.95;2.80;;;0.00;95.50;;;;;;4946118;28;20111;-87
2022/01/06 09:19:24;;;;;;;10.02;2.88;;;0.00;95.50;;;;;;4952627;28;20027;-88
2022/01/06 09:21:50;;;;;;;11.18;2.70;;;0.10;95.60;;;;;;4950196;29;20035;-88
2022/01/06 09:24:19;;;;;;;10.77;1.95;;;0.10;95.60;;;;;;4949315;29;20035;-88
2022/01/06 09:26:45;;;;;;;11.43;2.67;;;0.20;95.50;;;;;;4951841;28;20038;-88
2022/01/06 09:29:13;;;;;;;11.32;2.95;;;0.30;95.40;;;;;;4950609;29;20031;-87
2022/01/06 09:31:41;;;;;;;9.77;2.58;;;0.30;95.30;;;;;;4948001;28;20107;-87
2022/01/06 09:34:08;;;;;;;10.40;2.80;;;0.40;95.20;;;;;;4948679;29;20031;-87
2022/01/06 09:36:34;;;;;;;11.32;2.50;;;0.40;95.20;;;;;;4946965;29;20400;-87
2022/01/06 09:39:03;;;;;;;9.55;2.85;;;0.40;95.10;;;;;;4948852;28;20480;-87
2022/01/06 09:41:30;;;;;;;11.02;2.47;;;0.50;95.10;;;;;;4947592;28;20027;-87
2022/01/06 09:44:01;;;;;;;7.93;2.03;;;0.50;95.10;;;;;;4935922;29;20023;-87
2022/01/06 09:46:30;;;;;;;11.57;2.20;;;0.60;95.00;;;;;;4946771;28;20046;-87
2022/01/06 09:48:59;;;;;;;12.02;2.45;;;0.70;94.80;;;;;;4946937;29;20027;-87
2022/01/06 09:51:27;;;;;;;10.75;2.05;;;0.80;94.70;;;;;;4948185;28;20031;-86
2022/01/06 09:53:59;;;;;;;11.98;2.33;;;0.90;94.50;;;;;;4941538;29;20035;-85
2022/01/06 09:56:26;;;;;;;8.73;2.45;;;0.90;94.40;;;;;;4963644;28;20035;-87
2022/01/06 09:58:53;;;;;;;7.15;2.35;;;1.10;94.30;;;;;;4941678;29;20114;-87
2022/01/06 10:01:18;;;;;;;7.30;2.33;;;1.10;93.80;;;;;;4940989;28;20035;-86
2022/01/06 10:03:46;;;;;;;12.07;2.03;;;1.30;93.70;;;;;;4946354;29;20086;-86
2022/01/06 10:06:15;;;;;;;5.05;1.80;;;1.30;93.40;;;;;;4949986;28;20065;-86
2022/01/06 10:08:42;;;;;;;7.60;1.88;;;1.40;93.30;;;;;;4948066;29;20044;-86
2022/01/06 10:11:25;;;;;;;7.07;2.03;;;1.40;93.10;;;;;;4946649;28;20059;-86
2022/01/06 10:14:05;;;;;;;6.00;1.73;;;1.60;93.10;;;;;;4941740;29;20559;-87
2022/01/06 10:16:34;;;;;;;15.55;1.98;;;1.60;92.70;;;;;;4956594;28;20086;-87
2022/01/06 10:19:01;;;;;;;4.90;2.20;;;1.80;92.40;;;;;;4941587;28;20284;-87
2022/01/06 10:21:36;;;;;;;8.55;1.70;;;1.90;92.20;;;;;;4948367;28;20437;-87
2022/01/06 10:24:04;;;;;;;7.15;2.25;;;1.90;91.90;;;;;;4950299;29;20094;-86
2022/01/06 10:26:30;;;;;;;11.68;2.63;;;2.00;91.80;;;;;;4949695;28;20036;-86
2022/01/06 10:28:56;;;;;;;10.63;2.05;;;2.00;91.50;;;;;;4956529;28;20115;-87
2022/01/06 10:31:29;;;;;;;10.40;1.85;;;2.10;91.40;;;;;;4945894;29;20118;-87
2022/01/06 10:33:56;;;;;;;7.20;1.80;;;2.10;91.50;;;;;;4953623;29;20070;-87
2022/01/06 10:36:30;;;;;;;7.35;1.98;;;2.10;91.20;;;;;;4949192;29;20656;-87
2022/01/06 10:38:57;;;;;;;8.73;1.90;;;2.00;91.20;;;;;;4949209;29;20547;-87
2022/01/06 10:41:26;;;;;;;11.93;1.83;;;2.10;91.10;;;;;;4946450;29;20067;-87
2022/01/06 10:43:54;;;;;;;11.35;1.77;;;2.10;91.20;;;;;;4945913;28;20039;-87
2022/01/06 10:46:31;;;;;;;12.90;1.95;;;2.20;91.50;;;;;;4941649;28;20472;-88
2022/01/06 10:48:59;;;;;;;7.97;2.10;;;2.30;91.10;;;;;;4946608;28;20090;-88
2022/01/06 10:51:34;;;;;;;8.60;2.25;;;2.30;91.20;;;;;;4961769;28;20075;-88
2022/01/06 10:53:59;;;;;;;7.70;1.65;;;2.50;90.40;;;;;;4942630;28;20124;-88
2022/01/06 10:56:27;;;;;;;8.65;2.03;;;2.40;90.20;;;;;;4951663;28;20461;-88
2022/01/06 10:58:56;;;;;;;9.88;2.10;;;2.60;89.90;;;;;;4949991;29;20051;-88
2022/01/06 11:01:21;;;;;;;7.60;1.80;;;2.60;89.90;;;;;;4944784;28;20113;-88
2022/01/06 11:03:47;;;;;;;7.80;2.10;;;2.50;90.00;;;;;;4937556;29;20063;-89
2022/01/06 11:06:12;;;;;;;11.50;2.08;;;2.50;90.10;;;;;;4952161;29;20403;-88
2022/01/06 11:08:41;;;;;;;7.80;1.67;;;2.50;90.10;;;;;;4938331;29;20444;-88
2022/01/06 11:13:42;;;;;;;9.10;1.88;;;2.80;89.50;;;;;;4941133;29;20518;-88
2022/01/06 11:16:14;;;;;;;9.02;2.10;;;2.80;89.10;;;;;;4953444;28;20031;-88
2022/01/06 11:18:54;;;;;;;6.07;1.73;;;2.70;89.10;;;;;;4940276;29;20032;-88
2022/01/06 11:21:32;;;;;;;6.15;1.55;;;2.80;89.20;;;;;;4940092;29;20515;-86
2022/01/06 11:24:20;;;;;;;9.52;1.98;;;2.80;88.50;;;;;;4947730;29;20039;-86
2022/01/06 11:27:08;;;;;;;11.65;1.48;;;3.00;88.70;;;;;;4935825;29;20483;-85
2022/01/06 11:29:42;;;;;;;3.03;1.00;;;3.20;88.40;;;;;;4948796;28;20060;-85
2022/01/06 11:32:20;;;;;;;9.52;1.55;;;3.30;87.60;;;;;;4945882;29;20388;-85
2022/01/06 11:34:50;;;;;;;7.60;1.42;;;3.40;86.90;;;;;;4963903;28;20035;-86
2022/01/06 11:37:16;;;;;;;6.03;1.23;;;3.50;86.40;;;;;;4965880;28;20031;-86
2022/01/06 11:39:43;;;;;;;9.32;1.48;;;3.60;86.50;;;;;;4949919;28;20070;-87
2022/01/06 11:42:18;;;;;;;7.45;1.45;;;3.70;85.90;;;;;;4943032;29;20035;-88
2022/01/06 11:44:54;;;;;;;7.43;1.50;;;3.90;84.80;;;;;;4949137;29;20505;-87
2022/01/06 11:47:38;;;;;;;8.13;1.55;;;3.90;84.30;;;;;;4948547;28;20110;-86
2022/01/06 11:50:08;;;;;;;6.95;1.35;;;4.00;85.00;;;;;;4943755;29;20111;-87
2022/01/06 11:52:33;;;;;;;4.50;0.80;;;4.10;84.80;;;;;;4949184;28;20463;-86
2022/01/06 11:55:02;;;;;;;3.97;1.38;;;4.10;84.50;;;;;;4940753;29;20103;-86
2022/01/06 11:57:30;;;;;;;7.05;1.10;;;4.10;83.70;;;;;;4950966;28;20046;-86
2022/01/06 11:59:58;;;;;;;10.35;1.45;;;4.30;83.60;;;;;;4949365;29;20391;-86
2022/01/06 12:02:23;;;;;;;6.05;1.20;;;4.20;83.10;;;;;;4950377;29;20079;-87
2022/01/06 12:04:57;;;;;;;7.30;1.35;;;4.50;83.10;;;;;;4948186;29;20207;-87
2022/01/06 12:07:23;;;;;;;8.13;1.52;;;4.50;82.20;;;;;;4948689;29;20035;-87
2022/01/06 12:09:59;;;;;;;5.07;1.40;;;4.50;82.00;;;;;;4943152;28;20038;-86
2022/01/06 12:12:32;;;;;;;5.43;1.15;;;4.50;81.90;;;;;;4958762;28;20035;-86
2022/01/06 12:15:09;;;;;;;8.82;1.42;;;4.50;81.70;;;;;;4948741;28;20439;-86
2022/01/06 12:17:35;;;;;;;4.65;0.95;;;4.50;81.30;;;;;;4940083;28;20499;-86
2022/01/06 12:20:00;;;;;;;6.45;1.40;;;4.50;82.00;;;;;;4942856;28;20095;-86
2022/01/06 12:22:28;;;;;;;3.95;0.95;;;4.60;82.10;;;;;;4937164;29;20087;-86
2022/01/06 12:25:05;;;;;;;2.42;1.05;;;4.50;81.00;;;;;;4965854;28;20031;-85
2022/01/06 12:27:31;;;;;;;11.02;1.38;;;4.70;81.30;;;;;;4950866;29;20039;-86
2022/01/06 12:30:03;;;;;;;10.63;1.30;;;4.70;80.10;;;;;;4951017;29;20027;-86
2022/01/06 12:32:29;;;;;;;6.47;1.45;;;4.80;80.80;;;;;;4943074;28;20035;-85
2022/01/06 12:34:55;;;;;;;4.43;1.27;;;4.80;80.30;;;;;;4949299;29;20050;-86
2022/01/06 12:37:25;;;;;;;6.90;1.15;;;4.90;80.50;;;;;;4945459;29;20027;-86
2022/01/06 12:39:50;;;;;;;4.65;1.42;;;5.00;79.80;;;;;;4940057;28;20036;-86
2022/01/06 12:42:16;;;;;;;7.90;1.15;;;4.90;81.10;;;;;;4949267;28;20491;-86
2022/01/06 12:44:44;;;;;;;5.07;0.90;;;4.90;82.60;;;;;;4958479;28;20114;-86
2022/01/06 12:47:09;;;;;;;7.07;1.40;;;4.80;82.60;;;;;;4949571;28;20053;-86
2022/01/06 12:49:37;;;;;;;6.35;1.73;;;4.60;83.10;;;;;;4943208;29;20063;-86
2022/01/06 12:52:03;;;;;;;5.75;1.30;;;4.40;83.80;;;;;;4940412;29;20499;-86